createdAt,value
2019-04-16T00:02:29.201Z,77.80
2019-04-16T00:06:50.714Z,77.80
2019-04-16T00:11:17.415Z,77.80
2019-04-16T00:15:27.280Z,78.10
2019-04-16T00:19:36.104Z,78.30
2019-04-16T00:24:03.995Z,78.50
2019-04-16T00:28:12.808Z,78.50
2019-04-16T00:32:27.893Z,78.50
2019-04-16T00:36:36.723Z,78.70
2019-04-16T00:40:45.657Z,78.80
2019-04-16T00:44:54.556Z,78.90
2019-04-16T00:49:03.650Z,79.10
2019-04-16T00:53:12.490Z,80.20
2019-04-16T00:57:21.534Z,79.20
2019-04-16T01:01:30.667Z,79.30
2019-04-16T01:05:39.563Z,79.40
2019-04-16T01:09:48.503Z,79.50
2019-04-16T01:13:57.287Z,79.60
2019-04-16T01:18:07.827Z,79.80
2019-04-16T01:22:16.830Z,80.20
2019-04-16T01:26:26.900Z,80.30
2019-04-16T01:30:49.677Z,80.50
2019-04-16T01:35:20.833Z,80.50
2019-04-16T01:39:30.127Z,80.60
2019-04-16T01:43:39.427Z,80.50
2019-04-16T01:47:48.677Z,81.60
2019-04-16T01:51:57.535Z,81.20
2019-04-16T01:56:06.510Z,81.60
2019-04-16T02:00:15.782Z,81.80
2019-04-16T02:04:24.602Z,81.80
2019-04-16T02:08:33.460Z,81.80
2019-04-16T02:12:43.904Z,81.90
2019-04-16T02:16:55.691Z,81.90
2019-04-16T02:21:03.559Z,81.90
2019-04-16T02:25:12.545Z,81.90
2019-04-16T02:29:21.322Z,82.00
2019-04-16T02:33:30.635Z,81.80
2019-04-16T02:37:39.552Z,81.80
2019-04-16T02:41:48.713Z,81.80
2019-04-16T02:45:58.844Z,82.10
2019-04-16T02:50:11.539Z,82.10
2019-04-16T02:54:32.288Z,82.10
2019-04-16T02:58:46.352Z,81.90
2019-04-16T03:03:03.118Z,82.20
2019-04-16T03:07:12.083Z,82.60
2019-04-16T03:11:21.254Z,83.00
2019-04-16T03:15:47.350Z,82.70
2019-04-16T03:19:57.232Z,82.70
2019-04-16T03:24:09.086Z,82.70
2019-04-16T03:28:16.987Z,82.70
2019-04-16T03:32:33.586Z,82.80
2019-04-16T03:36:36.278Z,83.00
2019-04-16T03:40:45.170Z,83.00
2019-04-16T03:44:54.246Z,83.30
2019-04-16T03:49:03.260Z,83.70
2019-04-16T03:53:16.308Z,84.00
2019-04-16T03:57:22.990Z,84.10
2019-04-16T04:01:31.814Z,84.20
2019-04-16T04:05:40.570Z,84.30
2019-04-16T04:09:51.498Z,84.40
2019-04-16T04:14:00.277Z,84.40
2019-04-16T04:18:11.594Z,84.60
2019-04-16T04:22:22.716Z,84.40
2019-04-16T04:26:30.495Z,84.40
2019-04-16T04:30:39.380Z,84.70
2019-04-16T04:34:49.468Z,84.70
2019-04-16T04:38:58.413Z,84.90
2019-04-16T04:43:07.245Z,84.90
2019-04-16T04:47:19.266Z,84.90
2019-04-16T04:51:26.700Z,85.00
2019-04-16T04:55:35.569Z,84.70
2019-04-16T04:59:44.343Z,84.30
2019-04-16T05:04:12.574Z,84.90
2019-04-16T05:08:21.405Z,85.00
2019-04-16T05:12:30.538Z,85.60
2019-04-16T05:16:39.314Z,85.10
2019-04-16T05:20:48.120Z,83.10
2019-04-16T05:25:01.036Z,81.40
2019-04-16T05:29:16.062Z,80.90
2019-04-16T05:33:22.314Z,80.10
2019-04-16T05:37:31.386Z,79.90
2019-04-16T05:41:40.271Z,79.80
2019-04-16T05:45:49.167Z,79.70
2019-04-16T05:49:58.760Z,79.50
2019-04-16T05:54:30.322Z,79.00
2019-04-16T05:58:39.245Z,78.70
2019-04-16T06:02:50.527Z,78.30
2019-04-16T06:07:02.529Z,77.80
2019-04-16T06:11:09.554Z,77.30
2019-04-16T06:15:43.149Z,76.70
2019-04-16T06:20:09.883Z,76.30
2019-04-16T06:24:25.466Z,75.80
2019-04-16T06:29:02.646Z,75.70
2019-04-16T06:33:21.116Z,75.90
2019-04-16T06:37:35.047Z,75.00
2019-04-16T06:42:00.200Z,74.30
2019-04-16T06:46:40.590Z,73.40
2019-04-16T06:51:17.619Z,72.90
2019-04-16T06:55:37.789Z,71.50
2019-04-16T07:00:08.654Z,70.20
2019-04-16T07:04:29.518Z,68.90
2019-04-16T07:08:59.253Z,67.10
2019-04-16T07:13:11.148Z,65.50
2019-04-16T07:17:19.238Z,62.50
2019-04-16T07:21:28.140Z,57.30
2019-04-16T07:25:41.441Z,55.40
2019-04-16T07:29:51.237Z,54.10
2019-04-16T07:34:10.820Z,52.80
2019-04-16T07:38:27.205Z,51.80
2019-04-16T07:42:57.927Z,50.60
2019-04-16T07:47:23.548Z,49.80
2019-04-16T07:52:06.942Z,49.10
2019-04-16T07:56:20.570Z,49.40
2019-04-16T08:00:29.510Z,48.60
2019-04-16T08:04:38.397Z,48.30
2019-04-16T08:08:47.678Z,48.10
2019-04-16T08:13:00.489Z,46.60
2019-04-16T08:17:10.155Z,46.30
2019-04-16T08:21:22.315Z,46.30
2019-04-16T08:25:34.013Z,45.70
2019-04-16T08:29:41.806Z,45.30
2019-04-16T08:33:50.667Z,45.30
2019-04-16T08:37:59.577Z,45.00
2019-04-16T08:42:08.462Z,45.00
2019-04-16T08:46:17.438Z,44.50
2019-04-16T08:50:26.990Z,44.10
2019-04-16T08:54:35.956Z,43.60
2019-04-16T08:58:44.850Z,43.50
2019-04-16T09:02:57.801Z,43.00
2019-04-16T09:07:11.949Z,42.30
2019-04-16T09:11:23.255Z,42.70
2019-04-16T09:15:29.794Z,42.80
2019-04-16T09:19:40.241Z,43.10
2019-04-16T09:25:04.129Z,42.40
2019-04-16T09:28:25.851Z,42.30
2019-04-16T09:32:49.616Z,41.90
2019-04-16T09:37:07.446Z,42.10
2019-04-16T09:41:31.756Z,41.90
2019-04-16T09:45:40.627Z,42.30
2019-04-16T09:49:49.429Z,42.70
2019-04-16T09:53:58.306Z,42.50
2019-04-16T09:58:15.806Z,42.00
2019-04-16T10:02:27.598Z,42.70
2019-04-16T10:06:36.447Z,43.00
2019-04-16T10:10:45.295Z,42.00
2019-04-16T10:14:54.178Z,41.10
2019-04-16T10:19:07.798Z,41.00
2019-04-16T10:23:20.205Z,42.00
2019-04-16T10:27:51.210Z,41.90
2019-04-16T10:32:00.091Z,41.00
2019-04-16T10:36:08.928Z,41.70
2019-04-16T10:40:29.469Z,41.10
2019-04-16T10:44:57.401Z,40.80
2019-04-16T10:49:24.287Z,39.70
2019-04-16T10:53:51.945Z,40.10
2019-04-16T10:58:18.775Z,40.30
2019-04-16T11:02:38.807Z,40.50
2019-04-16T11:06:49.298Z,40.10
2019-04-16T11:10:58.273Z,39.30
2019-04-16T11:15:08.036Z,38.30
2019-04-16T11:19:16.914Z,39.00
2019-04-16T11:23:25.875Z,38.50
2019-04-16T11:27:35.217Z,39.10
2019-04-16T11:31:44.478Z,38.50
2019-04-16T11:35:53.814Z,38.90
2019-04-16T11:40:03.131Z,38.70
2019-04-16T11:44:15.978Z,38.60
2019-04-16T11:48:23.082Z,38.70
2019-04-16T11:52:32.052Z,38.10
2019-04-16T11:56:42.519Z,38.20
2019-04-16T12:00:56.178Z,38.70
2019-04-16T12:05:11.214Z,38.80
2019-04-16T12:09:38.276Z,39.20
2019-04-16T12:13:57.814Z,39.10
2019-04-16T12:18:12.193Z,40.20
2019-04-16T12:22:43.064Z,40.20
2019-04-16T12:27:17.084Z,40.00
2019-04-16T12:31:36.762Z,39.90
2019-04-16T12:36:00.789Z,39.00
2019-04-16T12:40:34.813Z,38.20
2019-04-16T12:44:56.237Z,38.00
2019-04-16T12:49:23.257Z,38.10
2019-04-16T12:53:53.434Z,37.60
2019-04-16T12:58:05.625Z,37.60
2019-04-16T13:02:26.208Z,37.80
2019-04-16T13:06:53.186Z,39.70
2019-04-16T13:11:39.986Z,39.20
2019-04-16T13:15:54.062Z,39.00
2019-04-16T13:20:37.213Z,39.80
2019-04-16T13:24:49.248Z,40.40
2019-04-16T13:28:59.263Z,39.90
2019-04-16T13:33:08.034Z,40.00
2019-04-16T13:37:17.115Z,40.00
2019-04-16T13:41:27.014Z,40.40
2019-04-16T13:45:38.445Z,40.50
2019-04-16T13:50:04.918Z,41.90
2019-04-16T13:54:23.622Z,41.90
2019-04-16T13:58:51.501Z,42.70
2019-04-16T14:03:04.192Z,42.40
2019-04-16T14:07:13.348Z,42.70
2019-04-16T14:11:22.299Z,43.00
2019-04-16T14:15:39.054Z,42.70
2019-04-16T14:19:45.472Z,43.40
2019-04-16T14:23:54.533Z,44.80
2019-04-16T14:28:03.771Z,45.50
2019-04-16T14:32:13.031Z,46.20
2019-04-16T14:36:22.206Z,46.90
2019-04-16T14:40:32.375Z,48.20
2019-04-16T14:44:45.414Z,48.60
2019-04-16T14:48:54.368Z,49.00
2019-04-16T14:53:03.253Z,49.60
2019-04-16T14:57:12.314Z,50.10
2019-04-16T15:01:49.319Z,49.90
2019-04-16T15:06:26.069Z,49.90
2019-04-16T15:10:43.218Z,50.80
2019-04-16T15:15:08.811Z,52.10
2019-04-16T15:19:37.765Z,53.50
2019-04-16T15:24:03.991Z,55.70
2019-04-16T15:28:19.899Z,56.80
2019-04-16T15:32:46.501Z,57.20
2019-04-16T15:37:10.837Z,57.10
2019-04-16T15:41:37.562Z,57.00
2019-04-16T15:46:27.043Z,57.40
2019-04-16T15:50:53.506Z,57.70
2019-04-16T15:55:20.159Z,58.50
2019-04-16T15:59:38.922Z,59.30
2019-04-16T16:04:06.829Z,60.40
2019-04-16T16:08:20.773Z,60.60
2019-04-16T16:12:31.408Z,61.10
2019-04-16T16:16:42.057Z,61.30
2019-04-16T16:20:50.926Z,61.80
2019-04-16T16:24:59.829Z,61.70
2019-04-16T16:29:08.645Z,61.60
2019-04-16T16:33:17.454Z,61.40
2019-04-16T16:37:26.577Z,61.50
2019-04-16T16:41:35.586Z,61.70
2019-04-16T16:45:54.365Z,62.00
2019-04-16T16:50:03.838Z,61.80
2019-04-16T16:54:19.970Z,61.70
2019-04-16T16:58:36.530Z,61.60
2019-04-16T17:03:10.007Z,61.50
2019-04-16T17:07:18.297Z,61.40
2019-04-16T17:11:27.430Z,61.70
2019-04-16T17:15:36.366Z,61.80
2019-04-16T17:19:45.550Z,61.60
2019-04-16T17:23:54.357Z,61.60
2019-04-16T17:28:03.213Z,61.70
2019-04-16T17:32:12.427Z,61.80
2019-04-16T17:36:21.277Z,61.50
2019-04-16T17:40:51.152Z,61.90
2019-04-16T17:45:24.430Z,62.30
2019-04-16T17:49:55.446Z,62.60
2019-04-16T17:54:10.437Z,63.00
2019-04-16T17:58:27.402Z,64.00
2019-04-16T18:03:04.094Z,64.50
2019-04-16T18:07:29.777Z,65.40
2019-04-16T18:12:04.493Z,65.80
2019-04-16T18:16:29.732Z,66.10
2019-04-16T18:21:03.900Z,66.30
2019-04-16T18:25:36.001Z,66.80
2019-04-16T18:30:11.005Z,67.00
2019-04-16T18:34:43.442Z,67.20
2019-04-16T18:39:11.186Z,67.50
2019-04-16T18:43:39.569Z,67.90
2019-04-16T18:48:04.530Z,68.20
2019-04-16T18:52:09.267Z,68.60
2019-04-16T18:56:18.097Z,69.00
2019-04-16T19:00:42.896Z,69.20
2019-04-16T19:04:51.735Z,69.30
2019-04-16T19:09:00.881Z,69.30
2019-04-16T19:13:11.581Z,69.40
2019-04-16T19:17:20.637Z,69.40
2019-04-16T19:21:29.894Z,69.80
2019-04-16T19:25:38.765Z,70.10
2019-04-16T19:29:47.969Z,70.50
2019-04-16T19:33:56.771Z,71.10
2019-04-16T19:38:07.441Z,71.60
2019-04-16T19:42:16.483Z,72.00
2019-04-16T19:46:25.266Z,72.40
2019-04-16T19:50:36.623Z,72.60
2019-04-16T19:54:44.905Z,72.80
2019-04-16T19:58:54.205Z,73.40
2019-04-16T20:03:03.127Z,73.70
2019-04-16T20:07:11.983Z,73.90
2019-04-16T20:11:21.748Z,74.10
2019-04-16T20:15:30.605Z,74.00
2019-04-16T20:19:57.617Z,74.40
2019-04-16T20:24:06.988Z,74.50
2019-04-16T20:28:16.411Z,74.60
2019-04-16T20:32:26.717Z,74.70
2019-04-16T20:36:35.671Z,74.80
2019-04-16T20:40:44.620Z,75.20
2019-04-16T20:44:53.428Z,75.10
2019-04-16T20:49:09.390Z,75.10
2019-04-16T20:53:13.441Z,75.20
2019-04-16T20:57:25.294Z,75.30
2019-04-16T21:01:37.407Z,75.30
2019-04-16T21:05:57.321Z,75.30
2019-04-16T21:09:54.964Z,75.30
2019-04-16T21:14:03.923Z,75.30
2019-04-16T21:18:12.685Z,75.50
2019-04-16T21:22:21.578Z,75.60
2019-04-16T21:26:30.434Z,75.80
2019-04-16T21:30:42.848Z,75.80
2019-04-16T21:34:58.707Z,76.40
2019-04-16T21:39:09.482Z,77.00
2019-04-16T21:43:18.257Z,77.40
2019-04-16T21:47:27.374Z,78.30
2019-04-16T21:51:38.194Z,77.40
2019-04-16T21:55:47.073Z,77.50
2019-04-16T21:59:58.084Z,78.00
2019-04-16T22:04:13.527Z,78.00
2019-04-16T22:08:20.790Z,78.20
2019-04-16T22:12:29.640Z,78.30
2019-04-16T22:16:38.906Z,78.30
2019-04-16T22:20:47.682Z,78.30
2019-04-16T22:24:56.531Z,78.30
2019-04-16T22:29:05.410Z,78.30
2019-04-16T22:33:14.217Z,78.60
2019-04-16T22:37:23.206Z,78.80
2019-04-16T22:41:37.541Z,79.30
2019-04-16T22:45:52.350Z,79.40
2019-04-16T22:50:15.142Z,79.30
2019-04-16T22:54:11.806Z,79.60
2019-04-16T22:58:24.347Z,79.80
2019-04-16T23:02:33.185Z,80.00
2019-04-16T23:06:42.320Z,80.00
2019-04-16T23:10:52.141Z,80.00
2019-04-16T23:15:01.298Z,80.10
2019-04-16T23:19:10.192Z,80.20
2019-04-16T23:23:19.367Z,80.20
2019-04-16T23:27:28.293Z,80.50
2019-04-16T23:31:37.155Z,81.00
2019-04-16T23:35:46.013Z,81.00
2019-04-16T23:39:54.814Z,81.80
2019-04-16T23:44:33.306Z,82.70
2019-04-16T23:49:01.274Z,83.30
2019-04-16T23:53:18.077Z,84.00
2019-04-16T23:57:49.033Z,84.50
